sensor_id;sensor_type;location;lat;lon;timestamp;P1;durP1;ratioP1;P2;durP2;ratioP2
9904;SDS011;4991;43.566;27.820;2022-12-29T00:00:09;12.77;;;6.13;;
9904;SDS011;4991;43.566;27.820;2022-12-29T00:02:35;13.87;;;7.00;;
9904;SDS011;4991;43.566;27.820;2022-12-29T00:05:01;10.50;;;6.23;;
9904;SDS011;4991;43.566;27.820;2022-12-29T00:07:27;11.23;;;5.83;;
9904;SDS011;4991;43.566;27.820;2022-12-29T00:09:53;10.93;;;5.60;;
9904;SDS011;4991;43.566;27.820;2022-12-29T00:12:18;9.33;;;5.27;;
9904;SDS011;4991;43.566;27.820;2022-12-29T00:14:44;8.40;;;5.10;;
9904;SDS011;4991;43.566;27.820;2022-12-29T00:17:28;11.83;;;5.43;;
9904;SDS011;4991;43.566;27.820;2022-12-29T00:19:54;9.67;;;6.17;;
9904;SDS011;4991;43.566;27.820;2022-12-29T00:22:38;10.90;;;5.60;;
9904;SDS011;4991;43.566;27.820;2022-12-29T00:25:22;7.70;;;5.27;;
9904;SDS011;4991;43.566;27.820;2022-12-29T00:28:08;9.17;;;5.20;;
9904;SDS011;4991;43.566;27.820;2022-12-29T00:30:52;7.50;;;5.03;;
9904;SDS011;4991;43.566;27.820;2022-12-29T00:33:36;8.00;;;4.67;;
9904;SDS011;4991;43.566;27.820;2022-12-29T00:36:27;5.93;;;3.03;;
9904;SDS011;4991;43.566;27.820;2022-12-29T00:38:56;8.43;;;4.03;;
9904;SDS011;4991;43.566;27.820;2022-12-29T00:41:43;7.70;;;3.90;;
9904;SDS011;4991;43.566;27.820;2022-12-29T00:44:27;4.50;;;3.13;;
9904;SDS011;4991;43.566;27.820;2022-12-29T00:46:53;5.03;;;3.47;;
9904;SDS011;4991;43.566;27.820;2022-12-29T00:49:18;7.07;;;4.07;;
9904;SDS011;4991;43.566;27.820;2022-12-29T00:51:57;7.60;;;3.57;;
9904;SDS011;4991;43.566;27.820;2022-12-29T00:54:27;6.43;;;3.67;;
9904;SDS011;4991;43.566;27.820;2022-12-29T00:56:53;7.43;;;4.00;;
9904;SDS011;4991;43.566;27.820;2022-12-29T00:59:19;8.63;;;4.97;;
9904;SDS011;4991;43.566;27.820;2022-12-29T01:01:46;10.20;;;4.57;;
9904;SDS011;4991;43.566;27.820;2022-12-29T01:04:12;8.37;;;5.00;;
9904;SDS011;4991;43.566;27.820;2022-12-29T01:06:39;6.20;;;4.00;;
9904;SDS011;4991;43.566;27.820;2022-12-29T01:09:05;5.63;;;3.33;;
9904;SDS011;4991;43.566;27.820;2022-12-29T01:11:50;4.50;;;3.27;;
9904;SDS011;4991;43.566;27.820;2022-12-29T01:14:16;11.17;;;4.20;;
9904;SDS011;4991;43.566;27.820;2022-12-29T01:16:43;6.83;;;3.20;;
9904;SDS011;4991;43.566;27.820;2022-12-29T01:19:08;6.23;;;2.83;;
9904;SDS011;4991;43.566;27.820;2022-12-29T01:21:34;7.37;;;3.27;;
9904;SDS011;4991;43.566;27.820;2022-12-29T01:23:59;8.10;;;3.60;;
9904;SDS011;4991;43.566;27.820;2022-12-29T01:26:25;4.80;;;3.27;;
9904;SDS011;4991;43.566;27.820;2022-12-29T01:28:51;7.73;;;3.37;;
9904;SDS011;4991;43.566;27.820;2022-12-29T01:31:17;4.77;;;3.43;;
9904;SDS011;4991;43.566;27.820;2022-12-29T01:33:43;4.03;;;2.30;;
9904;SDS011;4991;43.566;27.820;2022-12-29T01:36:12;5.70;;;2.70;;
9904;SDS011;4991;43.566;27.820;2022-12-29T01:38:40;3.17;;;2.10;;
9904;SDS011;4991;43.566;27.820;2022-12-29T01:41:07;5.83;;;2.50;;
9904;SDS011;4991;43.566;27.820;2022-12-29T01:43:42;4.03;;;2.23;;
9904;SDS011;4991;43.566;27.820;2022-12-29T01:48:53;5.50;;;2.30;;
9904;SDS011;4991;43.566;27.820;2022-12-29T01:51:24;5.37;;;2.60;;
9904;SDS011;4991;43.566;27.820;2022-12-29T01:53:54;4.67;;;2.67;;
9904;SDS011;4991;43.566;27.820;2022-12-29T01:56:23;6.80;;;2.20;;
9904;SDS011;4991;43.566;27.820;2022-12-29T01:58:51;7.93;;;2.57;;
9904;SDS011;4991;43.566;27.820;2022-12-29T02:01:25;4.03;;;2.17;;
9904;SDS011;4991;43.566;27.820;2022-12-29T02:03:51;3.70;;;2.20;;
9904;SDS011;4991;43.566;27.820;2022-12-29T02:06:18;4.57;;;2.37;;
9904;SDS011;4991;43.566;27.820;2022-12-29T02:08:52;6.37;;;2.50;;
9904;SDS011;4991;43.566;27.820;2022-12-29T02:11:20;5.13;;;2.83;;
9904;SDS011;4991;43.566;27.820;2022-12-29T02:13:48;3.40;;;2.17;;
9904;SDS011;4991;43.566;27.820;2022-12-29T02:21:33;2.80;;;2.20;;
9904;SDS011;4991;43.566;27.820;2022-12-29T02:30:03;5.73;;;2.67;;
9904;SDS011;4991;43.566;27.820;2022-12-29T02:35:17;7.57;;;2.70;;
9904;SDS011;4991;43.566;27.820;2022-12-29T02:38:10;6.20;;;3.13;;
9904;SDS011;4991;43.566;27.820;2022-12-29T02:41:05;3.00;;;2.30;;
9904;SDS011;4991;43.566;27.820;2022-12-29T02:46:36;6.27;;;3.93;;
9904;SDS011;4991;43.566;27.820;2022-12-29T02:49:10;7.43;;;2.53;;
9904;SDS011;4991;43.566;27.820;2022-12-29T02:51:44;5.77;;;2.83;;
9904;SDS011;4991;43.566;27.820;2022-12-29T02:54:18;6.37;;;2.87;;
9904;SDS011;4991;43.566;27.820;2022-12-29T02:57:07;5.20;;;3.13;;
9904;SDS011;4991;43.566;27.820;2022-12-29T02:59:58;7.30;;;2.80;;
9904;SDS011;4991;43.566;27.820;2022-12-29T03:05:26;8.37;;;3.60;;
9904;SDS011;4991;43.566;27.820;2022-12-29T03:16:40;6.83;;;3.30;;
9904;SDS011;4991;43.566;27.820;2022-12-29T03:19:30;4.67;;;2.80;;
9904;SDS011;4991;43.566;27.820;2022-12-29T03:22:03;9.33;;;2.70;;
9904;SDS011;4991;43.566;27.820;2022-12-29T03:24:50;7.53;;;3.30;;
9904;SDS011;4991;43.566;27.820;2022-12-29T03:27:24;4.40;;;2.73;;
9904;SDS011;4991;43.566;27.820;2022-12-29T03:29:55;9.30;;;3.03;;
9904;SDS011;4991;43.566;27.820;2022-12-29T03:32:26;6.17;;;3.40;;
9904;SDS011;4991;43.566;27.820;2022-12-29T03:34:56;5.77;;;3.47;;
9904;SDS011;4991;43.566;27.820;2022-12-29T03:37:25;3.97;;;2.80;;
9904;SDS011;4991;43.566;27.820;2022-12-29T03:39:56;5.97;;;3.23;;
9904;SDS011;4991;43.566;27.820;2022-12-29T03:42:23;10.97;;;3.67;;
9904;SDS011;4991;43.566;27.820;2022-12-29T03:44:53;6.70;;;3.40;;
9904;SDS011;4991;43.566;27.820;2022-12-29T03:47:21;4.73;;;3.33;;
9904;SDS011;4991;43.566;27.820;2022-12-29T03:49:48;6.90;;;3.30;;
9904;SDS011;4991;43.566;27.820;2022-12-29T03:52:14;3.37;;;2.80;;
9904;SDS011;4991;43.566;27.820;2022-12-29T03:54:40;8.13;;;3.37;;
9904;SDS011;4991;43.566;27.820;2022-12-29T03:57:06;7.80;;;3.20;;
9904;SDS011;4991;43.566;27.820;2022-12-29T03:59:33;7.47;;;4.07;;
9904;SDS011;4991;43.566;27.820;2022-12-29T04:01:58;6.43;;;3.67;;
9904;SDS011;4991;43.566;27.820;2022-12-29T04:04:24;6.37;;;3.10;;
9904;SDS011;4991;43.566;27.820;2022-12-29T04:06:49;7.33;;;4.13;;
9904;SDS011;4991;43.566;27.820;2022-12-29T04:09:15;6.10;;;3.67;;
9904;SDS011;4991;43.566;27.820;2022-12-29T04:11:41;10.90;;;3.47;;
9904;SDS011;4991;43.566;27.820;2022-12-29T04:14:06;6.93;;;3.63;;
9904;SDS011;4991;43.566;27.820;2022-12-29T04:16:32;6.33;;;2.97;;
9904;SDS011;4991;43.566;27.820;2022-12-29T04:19:01;6.13;;;3.17;;
9904;SDS011;4991;43.566;27.820;2022-12-29T04:21:27;5.87;;;3.73;;
9904;SDS011;4991;43.566;27.820;2022-12-29T04:23:53;9.17;;;3.57;;
9904;SDS011;4991;43.566;27.820;2022-12-29T04:26:18;6.97;;;3.43;;
9904;SDS011;4991;43.566;27.820;2022-12-29T04:28:44;6.20;;;3.73;;
9904;SDS011;4991;43.566;27.820;2022-12-29T04:31:10;4.43;;;3.20;;
9904;SDS011;4991;43.566;27.820;2022-12-29T04:33:35;8.00;;;3.43;;
9904;SDS011;4991;43.566;27.820;2022-12-29T04:36:01;10.07;;;3.10;;
9904;SDS011;4991;43.566;27.820;2022-12-29T04:38:27;6.57;;;3.20;;
9904;SDS011;4991;43.566;27.820;2022-12-29T04:40:52;9.07;;;3.60;;
9904;SDS011;4991;43.566;27.820;2022-12-29T04:43:18;6.20;;;3.70;;
9904;SDS011;4991;43.566;27.820;2022-12-29T04:45:44;6.37;;;3.50;;
9904;SDS011;4991;43.566;27.820;2022-12-29T04:48:11;6.37;;;3.40;;
9904;SDS011;4991;43.566;27.820;2022-12-29T04:50:37;6.00;;;3.67;;
9904;SDS011;4991;43.566;27.820;2022-12-29T04:53:03;8.13;;;4.23;;
9904;SDS011;4991;43.566;27.820;2022-12-29T04:55:29;5.60;;;3.70;;
9904;SDS011;4991;43.566;27.820;2022-12-29T04:57:55;8.10;;;4.50;;
9904;SDS011;4991;43.566;27.820;2022-12-29T05:00:20;13.87;;;5.13;;
9904;SDS011;4991;43.566;27.820;2022-12-29T05:02:46;10.17;;;5.33;;
9904;SDS011;4991;43.566;27.820;2022-12-29T05:05:12;9.60;;;5.57;;
9904;SDS011;4991;43.566;27.820;2022-12-29T05:07:38;8.33;;;5.20;;
9904;SDS011;4991;43.566;27.820;2022-12-29T05:10:04;11.00;;;5.00;;
9904;SDS011;4991;43.566;27.820;2022-12-29T05:12:30;8.40;;;5.20;;
9904;SDS011;4991;43.566;27.820;2022-12-29T05:14:57;7.77;;;6.10;;
9904;SDS011;4991;43.566;27.820;2022-12-29T05:17:22;9.90;;;6.57;;
9904;SDS011;4991;43.566;27.820;2022-12-29T05:19:48;8.53;;;5.90;;
9904;SDS011;4991;43.566;27.820;2022-12-29T05:22:14;11.27;;;6.50;;
9904;SDS011;4991;43.566;27.820;2022-12-29T05:24:39;12.60;;;6.30;;
9904;SDS011;4991;43.566;27.820;2022-12-29T05:27:05;10.43;;;6.50;;
9904;SDS011;4991;43.566;27.820;2022-12-29T05:29:30;11.30;;;4.57;;
9904;SDS011;4991;43.566;27.820;2022-12-29T05:31:56;11.60;;;5.13;;
9904;SDS011;4991;43.566;27.820;2022-12-29T05:34:22;7.10;;;4.17;;
9904;SDS011;4991;43.566;27.820;2022-12-29T05:36:48;7.67;;;4.03;;
9904;SDS011;4991;43.566;27.820;2022-12-29T05:39:13;5.37;;;3.50;;
9904;SDS011;4991;43.566;27.820;2022-12-29T05:41:39;6.03;;;3.97;;
9904;SDS011;4991;43.566;27.820;2022-12-29T05:44:04;9.57;;;4.50;;
9904;SDS011;4991;43.566;27.820;2022-12-29T05:46:30;6.80;;;3.73;;
9904;SDS011;4991;43.566;27.820;2022-12-29T05:48:56;9.13;;;4.50;;
9904;SDS011;4991;43.566;27.820;2022-12-29T05:51:22;9.37;;;5.97;;
9904;SDS011;4991;43.566;27.820;2022-12-29T05:53:47;7.77;;;5.17;;
9904;SDS011;4991;43.566;27.820;2022-12-29T05:56:13;9.57;;;6.00;;
9904;SDS011;4991;43.566;27.820;2022-12-29T05:58:38;13.50;;;5.57;;
9904;SDS011;4991;43.566;27.820;2022-12-29T06:01:04;11.23;;;6.07;;
9904;SDS011;4991;43.566;27.820;2022-12-29T06:03:30;12.20;;;5.93;;
9904;SDS011;4991;43.566;27.820;2022-12-29T06:05:56;7.67;;;4.37;;
9904;SDS011;4991;43.566;27.820;2022-12-29T06:08:21;9.13;;;4.80;;
9904;SDS011;4991;43.566;27.820;2022-12-29T06:10:47;8.33;;;5.13;;
9904;SDS011;4991;43.566;27.820;2022-12-29T06:13:13;10.10;;;4.43;;
9904;SDS011;4991;43.566;27.820;2022-12-29T06:15:38;8.37;;;4.50;;
9904;SDS011;4991;43.566;27.820;2022-12-29T06:18:04;8.10;;;3.93;;
9904;SDS011;4991;43.566;27.820;2022-12-29T06:20:30;9.77;;;5.67;;
9904;SDS011;4991;43.566;27.820;2022-12-29T06:22:55;13.30;;;5.90;;
9904;SDS011;4991;43.566;27.820;2022-12-29T06:25:21;11.47;;;6.97;;
9904;SDS011;4991;43.566;27.820;2022-12-29T06:27:47;18.70;;;11.20;;
9904;SDS011;4991;43.566;27.820;2022-12-29T06:30:13;13.50;;;8.00;;
9904;SDS011;4991;43.566;27.820;2022-12-29T06:32:40;16.83;;;10.67;;
9904;SDS011;4991;43.566;27.820;2022-12-29T06:35:06;15.70;;;9.43;;
9904;SDS011;4991;43.566;27.820;2022-12-29T06:37:32;11.37;;;7.77;;
9904;SDS011;4991;43.566;27.820;2022-12-29T06:39:57;15.20;;;10.43;;
9904;SDS011;4991;43.566;27.820;2022-12-29T06:42:23;60.13;;;35.57;;
9904;SDS011;4991;43.566;27.820;2022-12-29T06:44:49;25.20;;;16.83;;
9904;SDS011;4991;43.566;27.820;2022-12-29T06:47:15;25.87;;;12.60;;
9904;SDS011;4991;43.566;27.820;2022-12-29T06:49:40;19.93;;;11.97;;
9904;SDS011;4991;43.566;27.820;2022-12-29T06:52:06;19.03;;;11.03;;
9904;SDS011;4991;43.566;27.820;2022-12-29T06:54:32;18.70;;;12.07;;
9904;SDS011;4991;43.566;27.820;2022-12-29T06:56:58;22.47;;;12.60;;
9904;SDS011;4991;43.566;27.820;2022-12-29T06:59:24;19.53;;;11.43;;
9904;SDS011;4991;43.566;27.820;2022-12-29T07:01:52;19.03;;;11.43;;
9904;SDS011;4991;43.566;27.820;2022-12-29T07:04:18;13.63;;;8.00;;
9904;SDS011;4991;43.566;27.820;2022-12-29T07:06:44;22.67;;;11.93;;
9904;SDS011;4991;43.566;27.820;2022-12-29T07:09:09;21.07;;;11.83;;
9904;SDS011;4991;43.566;27.820;2022-12-29T07:11:35;18.37;;;9.67;;
9904;SDS011;4991;43.566;27.820;2022-12-29T07:14:01;10.33;;;5.70;;
9904;SDS011;4991;43.566;27.820;2022-12-29T07:16:27;14.87;;;8.07;;
9904;SDS011;4991;43.566;27.820;2022-12-29T07:18:54;9.20;;;5.80;;
9904;SDS011;4991;43.566;27.820;2022-12-29T07:21:21;23.87;;;14.07;;
9904;SDS011;4991;43.566;27.820;2022-12-29T07:23:48;6.47;;;4.70;;
9904;SDS011;4991;43.566;27.820;2022-12-29T07:26:14;8.77;;;5.93;;
9904;SDS011;4991;43.566;27.820;2022-12-29T07:28:43;9.33;;;4.90;;
9904;SDS011;4991;43.566;27.820;2022-12-29T07:31:18;7.60;;;5.07;;
9904;SDS011;4991;43.566;27.820;2022-12-29T07:33:46;7.87;;;4.50;;
9904;SDS011;4991;43.566;27.820;2022-12-29T07:36:13;8.97;;;4.93;;
9904;SDS011;4991;43.566;27.820;2022-12-29T07:38:40;9.27;;;5.33;;
9904;SDS011;4991;43.566;27.820;2022-12-29T07:41:08;9.03;;;4.73;;
9904;SDS011;4991;43.566;27.820;2022-12-29T07:43:34;10.03;;;4.90;;
9904;SDS011;4991;43.566;27.820;2022-12-29T07:46:00;8.27;;;5.50;;
9904;SDS011;4991;43.566;27.820;2022-12-29T07:48:25;11.60;;;4.30;;
9904;SDS011;4991;43.566;27.820;2022-12-29T07:50:51;9.47;;;4.83;;
9904;SDS011;4991;43.566;27.820;2022-12-29T07:53:18;8.53;;;3.30;;
9904;SDS011;4991;43.566;27.820;2022-12-29T07:55:45;11.33;;;4.13;;
9904;SDS011;4991;43.566;27.820;2022-12-29T07:58:10;7.40;;;4.23;;
9904;SDS011;4991;43.566;27.820;2022-12-29T08:00:37;6.63;;;3.60;;
9904;SDS011;4991;43.566;27.820;2022-12-29T08:03:03;10.90;;;4.23;;
9904;SDS011;4991;43.566;27.820;2022-12-29T08:05:32;7.83;;;3.73;;
9904;SDS011;4991;43.566;27.820;2022-12-29T08:08:00;6.57;;;3.77;;
9904;SDS011;4991;43.566;27.820;2022-12-29T08:10:25;6.27;;;3.30;;
9904;SDS011;4991;43.566;27.820;2022-12-29T08:12:51;11.53;;;4.80;;
9904;SDS011;4991;43.566;27.820;2022-12-29T08:15:17;7.20;;;4.03;;
9904;SDS011;4991;43.566;27.820;2022-12-29T08:17:44;6.90;;;3.87;;
9904;SDS011;4991;43.566;27.820;2022-12-29T08:20:11;6.43;;;3.57;;
9904;SDS011;4991;43.566;27.820;2022-12-29T08:22:37;7.60;;;3.80;;
9904;SDS011;4991;43.566;27.820;2022-12-29T08:25:04;8.57;;;4.63;;
9904;SDS011;4991;43.566;27.820;2022-12-29T08:27:34;9.07;;;4.77;;
9904;SDS011;4991;43.566;27.820;2022-12-29T08:29:59;9.37;;;4.90;;
9904;SDS011;4991;43.566;27.820;2022-12-29T08:32:27;6.70;;;4.30;;
9904;SDS011;4991;43.566;27.820;2022-12-29T08:34:55;12.83;;;4.57;;
9904;SDS011;4991;43.566;27.820;2022-12-29T08:37:20;9.20;;;3.67;;
9904;SDS011;4991;43.566;27.820;2022-12-29T08:39:47;7.57;;;3.90;;
9904;SDS011;4991;43.566;27.820;2022-12-29T08:42:14;6.87;;;4.17;;
9904;SDS011;4991;43.566;27.820;2022-12-29T08:44:39;9.03;;;4.30;;
9904;SDS011;4991;43.566;27.820;2022-12-29T08:47:05;9.53;;;4.13;;
9904;SDS011;4991;43.566;27.820;2022-12-29T08:49:31;7.50;;;4.10;;
9904;SDS011;4991;43.566;27.820;2022-12-29T08:51:58;6.07;;;3.87;;
9904;SDS011;4991;43.566;27.820;2022-12-29T08:54:24;9.17;;;4.63;;
9904;SDS011;4991;43.566;27.820;2022-12-29T08:56:50;6.77;;;3.90;;
9904;SDS011;4991;43.566;27.820;2022-12-29T08:59:16;6.33;;;3.90;;
9904;SDS011;4991;43.566;27.820;2022-12-29T09:01:42;5.33;;;4.00;;
9904;SDS011;4991;43.566;27.820;2022-12-29T09:04:08;9.03;;;3.97;;
9904;SDS011;4991;43.566;27.820;2022-12-29T09:06:35;6.33;;;3.93;;
9904;SDS011;4991;43.566;27.820;2022-12-29T09:09:02;10.73;;;5.50;;
9904;SDS011;4991;43.566;27.820;2022-12-29T09:11:27;6.17;;;3.83;;
9904;SDS011;4991;43.566;27.820;2022-12-29T09:13:54;5.57;;;3.87;;
9904;SDS011;4991;43.566;27.820;2022-12-29T09:16:22;4.70;;;3.10;;
9904;SDS011;4991;43.566;27.820;2022-12-29T09:18:49;4.90;;;3.07;;
9904;SDS011;4991;43.566;27.820;2022-12-29T09:21:16;7.00;;;3.73;;
9904;SDS011;4991;43.566;27.820;2022-12-29T09:23:42;5.03;;;3.37;;
9904;SDS011;4991;43.566;27.820;2022-12-29T09:26:09;11.40;;;7.00;;
9904;SDS011;4991;43.566;27.820;2022-12-29T09:28:35;7.43;;;3.67;;
9904;SDS011;4991;43.566;27.820;2022-12-29T09:31:03;5.67;;;3.30;;
9904;SDS011;4991;43.566;27.820;2022-12-29T09:33:28;7.70;;;3.27;;
9904;SDS011;4991;43.566;27.820;2022-12-29T09:35:56;4.00;;;3.33;;
9904;SDS011;4991;43.566;27.820;2022-12-29T09:38:23;4.83;;;3.43;;
9904;SDS011;4991;43.566;27.820;2022-12-29T09:40:52;7.43;;;3.70;;
9904;SDS011;4991;43.566;27.820;2022-12-29T09:48:54;7.03;;;3.93;;
9904;SDS011;4991;43.566;27.820;2022-12-29T09:51:27;6.97;;;3.90;;
9904;SDS011;4991;43.566;27.820;2022-12-29T09:53:55;6.90;;;3.97;;
9904;SDS011;4991;43.566;27.820;2022-12-29T09:56:24;6.63;;;3.40;;
9904;SDS011;4991;43.566;27.820;2022-12-29T09:58:53;8.13;;;4.03;;
9904;SDS011;4991;43.566;27.820;2022-12-29T10:03:59;6.53;;;4.70;;
9904;SDS011;4991;43.566;27.820;2022-12-29T10:06:36;5.03;;;3.33;;
9904;SDS011;4991;43.566;27.820;2022-12-29T10:25:37;8.80;;;3.87;;
9904;SDS011;4991;43.566;27.820;2022-12-29T10:28:06;6.47;;;3.27;;
9904;SDS011;4991;43.566;27.820;2022-12-29T10:30:46;6.47;;;3.37;;
9904;SDS011;4991;43.566;27.820;2022-12-29T10:33:21;7.60;;;3.10;;
9904;SDS011;4991;43.566;27.820;2022-12-29T10:35:52;4.33;;;3.10;;
9904;SDS011;4991;43.566;27.820;2022-12-29T10:40:51;7.70;;;3.23;;
9904;SDS011;4991;43.566;27.820;2022-12-29T10:43:25;5.63;;;2.90;;
9904;SDS011;4991;43.566;27.820;2022-12-29T10:45:53;7.97;;;3.53;;
9904;SDS011;4991;43.566;27.820;2022-12-29T10:48:25;4.63;;;2.93;;
9904;SDS011;4991;43.566;27.820;2022-12-29T10:50:56;6.03;;;2.53;;
9904;SDS011;4991;43.566;27.820;2022-12-29T10:53:37;5.67;;;3.47;;
9904;SDS011;4991;43.566;27.820;2022-12-29T10:56:42;4.63;;;2.87;;
9904;SDS011;4991;43.566;27.820;2022-12-29T11:01:56;4.90;;;2.67;;
9904;SDS011;4991;43.566;27.820;2022-12-29T11:07:23;9.83;;;4.47;;
9904;SDS011;4991;43.566;27.820;2022-12-29T11:09:50;4.70;;;2.80;;
9904;SDS011;4991;43.566;27.820;2022-12-29T11:12:22;3.70;;;2.80;;
9904;SDS011;4991;43.566;27.820;2022-12-29T11:20:36;9.47;;;3.63;;
9904;SDS011;4991;43.566;27.820;2022-12-29T11:23:04;5.60;;;3.00;;
9904;SDS011;4991;43.566;27.820;2022-12-29T11:26:12;5.20;;;2.63;;
9904;SDS011;4991;43.566;27.820;2022-12-29T11:28:38;6.33;;;3.80;;
9904;SDS011;4991;43.566;27.820;2022-12-29T11:31:06;4.73;;;2.93;;
9904;SDS011;4991;43.566;27.820;2022-12-29T11:33:34;7.60;;;3.40;;
9904;SDS011;4991;43.566;27.820;2022-12-29T11:36:10;3.93;;;3.10;;
9904;SDS011;4991;43.566;27.820;2022-12-29T11:38:39;9.70;;;6.53;;
9904;SDS011;4991;43.566;27.820;2022-12-29T11:41:10;10.10;;;5.50;;
9904;SDS011;4991;43.566;27.820;2022-12-29T11:43:44;5.03;;;3.07;;
9904;SDS011;4991;43.566;27.820;2022-12-29T11:46:14;13.03;;;3.43;;
9904;SDS011;4991;43.566;27.820;2022-12-29T11:48:43;5.93;;;3.03;;
9904;SDS011;4991;43.566;27.820;2022-12-29T11:51:11;5.23;;;2.90;;
9904;SDS011;4991;43.566;27.820;2022-12-29T11:53:49;9.33;;;3.57;;
9904;SDS011;4991;43.566;27.820;2022-12-29T11:56:22;7.33;;;4.10;;
9904;SDS011;4991;43.566;27.820;2022-12-29T12:01:54;10.03;;;3.77;;
9904;SDS011;4991;43.566;27.820;2022-12-29T12:04:25;4.20;;;3.07;;
9904;SDS011;4991;43.566;27.820;2022-12-29T12:09:41;15.03;;;5.17;;
9904;SDS011;4991;43.566;27.820;2022-12-29T12:12:32;6.70;;;3.40;;
9904;SDS011;4991;43.566;27.820;2022-12-29T12:15:03;11.97;;;4.90;;
9904;SDS011;4991;43.566;27.820;2022-12-29T12:17:30;14.47;;;6.83;;
9904;SDS011;4991;43.566;27.820;2022-12-29T12:25:34;6.00;;;4.67;;
9904;SDS011;4991;43.566;27.820;2022-12-29T12:28:21;11.40;;;4.60;;
9904;SDS011;4991;43.566;27.820;2022-12-29T12:30:58;10.00;;;6.53;;
9904;SDS011;4991;43.566;27.820;2022-12-29T12:33:41;12.50;;;5.30;;
9904;SDS011;4991;43.566;27.820;2022-12-29T12:36:26;8.17;;;4.70;;
9904;SDS011;4991;43.566;27.820;2022-12-29T12:39:00;27.27;;;11.57;;
9904;SDS011;4991;43.566;27.820;2022-12-29T12:44:34;8.70;;;5.47;;
9904;SDS011;4991;43.566;27.820;2022-12-29T12:52:42;66.60;;;29.00;;
9904;SDS011;4991;43.566;27.820;2022-12-29T13:00:51;16.93;;;7.07;;
9904;SDS011;4991;43.566;27.820;2022-12-29T13:15:08;8.73;;;6.40;;
9904;SDS011;4991;43.566;27.820;2022-12-29T13:20:33;9.53;;;7.03;;
9904;SDS011;4991;43.566;27.820;2022-12-29T13:23:15;10.57;;;7.17;;
9904;SDS011;4991;43.566;27.820;2022-12-29T13:26:00;12.10;;;7.63;;
9904;SDS011;4991;43.566;27.820;2022-12-29T13:28:55;8.20;;;5.37;;
9904;SDS011;4991;43.566;27.820;2022-12-29T13:34:26;9.80;;;7.00;;
9904;SDS011;4991;43.566;27.820;2022-12-29T13:36:56;11.00;;;6.20;;
9904;SDS011;4991;43.566;27.820;2022-12-29T13:39:31;13.00;;;7.67;;
9904;SDS011;4991;43.566;27.820;2022-12-29T13:42:01;11.07;;;6.47;;
9904;SDS011;4991;43.566;27.820;2022-12-29T13:44:46;13.63;;;6.53;;
9904;SDS011;4991;43.566;27.820;2022-12-29T13:50:20;12.70;;;6.60;;
9904;SDS011;4991;43.566;27.820;2022-12-29T13:58:35;10.63;;;6.33;;
9904;SDS011;4991;43.566;27.820;2022-12-29T14:03:46;9.30;;;6.40;;
9904;SDS011;4991;43.566;27.820;2022-12-29T14:08:47;20.00;;;10.27;;
9904;SDS011;4991;43.566;27.820;2022-12-29T14:11:17;25.30;;;11.87;;
9904;SDS011;4991;43.566;27.820;2022-12-29T14:13:46;25.63;;;11.77;;
9904;SDS011;4991;43.566;27.820;2022-12-29T14:16:27;13.57;;;7.23;;
9904;SDS011;4991;43.566;27.820;2022-12-29T14:18:56;27.50;;;8.93;;
9904;SDS011;4991;43.566;27.820;2022-12-29T14:21:29;10.53;;;7.37;;
9904;SDS011;4991;43.566;27.820;2022-12-29T14:24:00;12.00;;;8.27;;
9904;SDS011;4991;43.566;27.820;2022-12-29T14:26:54;20.03;;;12.77;;
9904;SDS011;4991;43.566;27.820;2022-12-29T14:31:49;21.20;;;10.77;;
9904;SDS011;4991;43.566;27.820;2022-12-29T14:36:53;17.80;;;8.43;;
9904;SDS011;4991;43.566;27.820;2022-12-29T14:39:37;19.33;;;10.07;;
9904;SDS011;4991;43.566;27.820;2022-12-29T14:42:05;21.70;;;10.97;;
9904;SDS011;4991;43.566;27.820;2022-12-29T14:44:57;23.70;;;10.97;;
9904;SDS011;4991;43.566;27.820;2022-12-29T14:49:55;21.83;;;11.13;;
9904;SDS011;4991;43.566;27.820;2022-12-29T14:52:26;22.47;;;15.17;;
9904;SDS011;4991;43.566;27.820;2022-12-29T14:54:54;20.53;;;14.93;;
9904;SDS011;4991;43.566;27.820;2022-12-29T14:57:35;26.60;;;14.77;;
9904;SDS011;4991;43.566;27.820;2022-12-29T15:00:21;20.47;;;12.33;;
9904;SDS011;4991;43.566;27.820;2022-12-29T15:03:02;20.47;;;12.30;;
9904;SDS011;4991;43.566;27.820;2022-12-29T15:05:52;18.93;;;12.77;;
9904;SDS011;4991;43.566;27.820;2022-12-29T15:08:22;18.27;;;11.40;;
9904;SDS011;4991;43.566;27.820;2022-12-29T15:11:10;15.00;;;10.87;;
9904;SDS011;4991;43.566;27.820;2022-12-29T15:13:42;17.73;;;10.87;;
9904;SDS011;4991;43.566;27.820;2022-12-29T15:16:42;17.57;;;12.47;;
9904;SDS011;4991;43.566;27.820;2022-12-29T15:19:02;23.43;;;14.17;;
9904;SDS011;4991;43.566;27.820;2022-12-29T15:21:31;21.43;;;15.23;;
9904;SDS011;4991;43.566;27.820;2022-12-29T15:23:58;33.17;;;22.23;;
9904;SDS011;4991;43.566;27.820;2022-12-29T15:26:37;26.53;;;17.67;;
9904;SDS011;4991;43.566;27.820;2022-12-29T15:29:05;28.90;;;19.13;;
9904;SDS011;4991;43.566;27.820;2022-12-29T15:31:55;24.40;;;16.63;;
9904;SDS011;4991;43.566;27.820;2022-12-29T15:34:24;25.60;;;16.93;;
9904;SDS011;4991;43.566;27.820;2022-12-29T15:36:54;31.53;;;18.30;;
9904;SDS011;4991;43.566;27.820;2022-12-29T15:39:27;22.97;;;16.03;;
9904;SDS011;4991;43.566;27.820;2022-12-29T15:44:45;20.97;;;14.30;;
9904;SDS011;4991;43.566;27.820;2022-12-29T15:47:13;21.33;;;15.10;;
9904;SDS011;4991;43.566;27.820;2022-12-29T15:49:52;24.90;;;18.43;;
9904;SDS011;4991;43.566;27.820;2022-12-29T15:52:22;37.60;;;19.47;;
9904;SDS011;4991;43.566;27.820;2022-12-29T15:54:49;32.43;;;18.87;;
9904;SDS011;4991;43.566;27.820;2022-12-29T15:59:46;39.00;;;20.87;;
9904;SDS011;4991;43.566;27.820;2022-12-29T16:02:13;33.50;;;20.10;;
9904;SDS011;4991;43.566;27.820;2022-12-29T16:04:40;31.43;;;19.90;;
9904;SDS011;4991;43.566;27.820;2022-12-29T16:09:58;36.90;;;22.43;;
9904;SDS011;4991;43.566;27.820;2022-12-29T16:12:32;31.37;;;18.43;;
9904;SDS011;4991;43.566;27.820;2022-12-29T16:15:05;31.70;;;19.43;;
9904;SDS011;4991;43.566;27.820;2022-12-29T16:17:36;34.30;;;19.37;;
9904;SDS011;4991;43.566;27.820;2022-12-29T16:22:50;31.10;;;18.63;;
9904;SDS011;4991;43.566;27.820;2022-12-29T16:25:30;23.77;;;15.53;;
9904;SDS011;4991;43.566;27.820;2022-12-29T16:28:00;22.87;;;16.63;;
9904;SDS011;4991;43.566;27.820;2022-12-29T16:30:31;27.03;;;17.77;;
9904;SDS011;4991;43.566;27.820;2022-12-29T16:33:04;35.30;;;23.30;;
9904;SDS011;4991;43.566;27.820;2022-12-29T16:35:44;40.37;;;26.40;;
9904;SDS011;4991;43.566;27.820;2022-12-29T16:38:20;38.50;;;26.52;;
9904;SDS011;4991;43.566;27.820;2022-12-29T16:43:29;39.40;;;24.67;;
9904;SDS011;4991;43.566;27.820;2022-12-29T16:48:28;29.57;;;19.53;;
9904;SDS011;4991;43.566;27.820;2022-12-29T16:51:01;33.40;;;20.83;;
9904;SDS011;4991;43.566;27.820;2022-12-29T16:53:42;30.77;;;19.30;;
9904;SDS011;4991;43.566;27.820;2022-12-29T16:56:15;30.03;;;19.47;;
9904;SDS011;4991;43.566;27.820;2022-12-29T16:58:51;30.83;;;17.03;;
9904;SDS011;4991;43.566;27.820;2022-12-29T17:01:26;25.73;;;17.53;;
9904;SDS011;4991;43.566;27.820;2022-12-29T17:03:58;27.63;;;18.53;;
9904;SDS011;4991;43.566;27.820;2022-12-29T17:06:30;31.57;;;19.03;;
9904;SDS011;4991;43.566;27.820;2022-12-29T17:08:56;29.03;;;18.97;;
9904;SDS011;4991;43.566;27.820;2022-12-29T17:11:23;32.30;;;20.03;;
9904;SDS011;4991;43.566;27.820;2022-12-29T17:14:18;31.40;;;20.40;;
9904;SDS011;4991;43.566;27.820;2022-12-29T17:16:44;32.10;;;19.53;;
9904;SDS011;4991;43.566;27.820;2022-12-29T17:19:17;31.40;;;20.43;;
9904;SDS011;4991;43.566;27.820;2022-12-29T17:21:44;32.67;;;20.60;;
9904;SDS011;4991;43.566;27.820;2022-12-29T17:24:17;42.10;;;26.67;;
9904;SDS011;4991;43.566;27.820;2022-12-29T17:26:45;53.40;;;33.33;;
9904;SDS011;4991;43.566;27.820;2022-12-29T17:29:20;59.77;;;31.67;;
9904;SDS011;4991;43.566;27.820;2022-12-29T17:32:05;64.27;;;35.13;;
9904;SDS011;4991;43.566;27.820;2022-12-29T17:34:35;43.53;;;27.00;;
9904;SDS011;4991;43.566;27.820;2022-12-29T17:37:01;29.13;;;19.43;;
9904;SDS011;4991;43.566;27.820;2022-12-29T17:39:27;27.90;;;19.00;;
9904;SDS011;4991;43.566;27.820;2022-12-29T17:41:53;34.00;;;23.30;;